Etusivu
METAR-TAF:

METAR-TAF

Lentoasemat :

Cluj-Napoca, Romania

Leveyspiiri: 46-47N, Pituuspiiri: 023-34E, korkeus merenpinnasta: 315 m

Tämänhetkinen sää

Tämä raportti tehtiin 27 minuuttia sitten, kello 21.00 UTC
Tuuli 3 kn lännestä
Lämpötila 23°C
Kosteus 65%
Ilmanpaine 1013 hPa
Näkyvyys 10 km tai enemmän
ei pilviä alle 1500 m:ssä eikä cumulonimbus-pilviä

METAR: LRCL 132100Z 27003KT CAVOK 23/16 Q1013

Aika: 00:27 (21:27 UTC)

Sääennuste

Tämä raportti tehtiin 1 tunti ja 27 minuuttia sitten, kello 20.00 UTC
Ennuste voimassa 13. päivästä klo 21 UTC - 14. päivään klo 06 UTC
Tuuli 4 kn eri suunnista
Näkyvyys 10 km tai enemmän
ei pilviä alle 1500 m:ssä eikä cumulonimbus-pilviä

TAF: LRCL 132000Z 1321/1406 VRB04KT CAVOK

Säähavainnot ja -ennusteet yli 4000 lentoasemalta (METAR- ja TAF-raportit).

Käytössä olevat sääasemat on merkitty karttaan keltaisilla ja punaisilla pisteillä.

Aseta hiiri pisteen päälle nähdäksesi sääaseman nimen.

Klikkaa sitten nähdäksesi säähavainnot ja -ennusteet.

Kartan vaihtaminen: klikkaa mustalla rastilla varustettuja vihreitä pisteitä, niin voit zoomata sisään; viivalla varustettua vihreää pistettä, niin voit zoomata ulos tai vihreitä nuolia, niin pääset viereisille kartoille.


METAR-TAF: